sensor_id;sensor_type;location;lat;lon;timestamp;P1;durP1;ratioP1;P2;durP2;ratioP2
819;SDS011;392;48.838;2.322;2023-03-24T00:00:31;4.33;;;3.93;;
819;SDS011;392;48.838;2.322;2023-03-24T00:02:59;3.70;;;3.50;;
819;SDS011;392;48.838;2.322;2023-03-24T00:05:26;3.63;;;3.43;;
819;SDS011;392;48.838;2.322;2023-03-24T00:07:56;3.80;;;3.47;;
819;SDS011;392;48.838;2.322;2023-03-24T00:10:26;3.90;;;3.70;;
819;SDS011;392;48.838;2.322;2023-03-24T00:12:58;3.87;;;3.20;;
819;SDS011;392;48.838;2.322;2023-03-24T00:15:26;4.07;;;3.87;;
819;SDS011;392;48.838;2.322;2023-03-24T00:17:54;3.57;;;3.37;;
819;SDS011;392;48.838;2.322;2023-03-24T00:20:22;3.60;;;3.40;;
819;SDS011;392;48.838;2.322;2023-03-24T00:22:51;3.40;;;3.20;;
819;SDS011;392;48.838;2.322;2023-03-24T00:25:25;3.23;;;3.00;;
819;SDS011;392;48.838;2.322;2023-03-24T00:27:54;3.40;;;3.20;;
819;SDS011;392;48.838;2.322;2023-03-24T00:30:22;3.30;;;3.20;;
819;SDS011;392;48.838;2.322;2023-03-24T00:32:51;3.10;;;3.00;;
819;SDS011;392;48.838;2.322;2023-03-24T00:35:21;3.63;;;3.30;;
819;SDS011;392;48.838;2.322;2023-03-24T00:37:49;2.70;;;2.60;;
819;SDS011;392;48.838;2.322;2023-03-24T00:40:17;2.73;;;2.63;;
819;SDS011;392;48.838;2.322;2023-03-24T00:42:48;2.97;;;2.70;;
819;SDS011;392;48.838;2.322;2023-03-24T00:45:17;2.93;;;2.83;;
819;SDS011;392;48.838;2.322;2023-03-24T00:47:47;2.87;;;2.77;;
819;SDS011;392;48.838;2.322;2023-03-24T00:50:18;2.43;;;2.33;;
819;SDS011;392;48.838;2.322;2023-03-24T00:52:51;2.77;;;2.67;;
819;SDS011;392;48.838;2.322;2023-03-24T00:55:18;3.07;;;2.87;;
819;SDS011;392;48.838;2.322;2023-03-24T00:57:48;2.83;;;2.63;;
819;SDS011;392;48.838;2.322;2023-03-24T01:00:17;2.70;;;2.60;;
819;SDS011;392;48.838;2.322;2023-03-24T01:02:48;2.80;;;2.70;;
819;SDS011;392;48.838;2.322;2023-03-24T01:05:18;2.33;;;2.23;;
819;SDS011;392;48.838;2.322;2023-03-24T01:07:47;2.80;;;2.70;;
819;SDS011;392;48.838;2.322;2023-03-24T01:10:17;3.10;;;2.93;;
819;SDS011;392;48.838;2.322;2023-03-24T01:12:52;3.47;;;3.27;;
819;SDS011;392;48.838;2.322;2023-03-24T01:15:23;2.60;;;2.50;;
819;SDS011;392;48.838;2.322;2023-03-24T01:17:54;2.83;;;2.63;;
819;SDS011;392;48.838;2.322;2023-03-24T01:20:22;2.80;;;2.70;;
819;SDS011;392;48.838;2.322;2023-03-24T01:22:50;2.97;;;2.77;;
819;SDS011;392;48.838;2.322;2023-03-24T01:25:18;2.80;;;2.60;;
819;SDS011;392;48.838;2.322;2023-03-24T01:27:49;2.50;;;2.30;;
819;SDS011;392;48.838;2.322;2023-03-24T01:30:20;2.50;;;2.30;;
819;SDS011;392;48.838;2.322;2023-03-24T01:32:49;3.00;;;2.80;;
819;SDS011;392;48.838;2.322;2023-03-24T01:35:18;2.40;;;2.30;;
819;SDS011;392;48.838;2.322;2023-03-24T01:37:46;2.40;;;2.30;;
819;SDS011;392;48.838;2.322;2023-03-24T01:40:15;2.20;;;2.10;;
819;SDS011;392;48.838;2.322;2023-03-24T01:42:45;3.20;;;2.67;;
819;SDS011;392;48.838;2.322;2023-03-24T01:48:22;2.63;;;2.43;;
819;SDS011;392;48.838;2.322;2023-03-24T01:50:57;2.40;;;2.20;;
819;SDS011;392;48.838;2.322;2023-03-24T01:53:28;2.13;;;2.03;;
819;SDS011;392;48.838;2.322;2023-03-24T01:55:58;2.60;;;2.50;;
819;SDS011;392;48.838;2.322;2023-03-24T01:58:31;2.30;;;2.20;;
819;SDS011;392;48.838;2.322;2023-03-24T02:01:12;2.30;;;2.20;;
819;SDS011;392;48.838;2.322;2023-03-24T02:04:02;2.60;;;2.40;;
819;SDS011;392;48.838;2.322;2023-03-24T02:06:32;2.33;;;2.23;;
819;SDS011;392;48.838;2.322;2023-03-24T02:09:07;2.40;;;2.30;;
819;SDS011;392;48.838;2.322;2023-03-24T02:11:36;2.60;;;2.50;;
819;SDS011;392;48.838;2.322;2023-03-24T02:14:06;2.57;;;2.47;;
819;SDS011;392;48.838;2.322;2023-03-24T02:16:41;2.47;;;2.37;;
819;SDS011;392;48.838;2.322;2023-03-24T02:42:22;3.03;;;2.73;;
819;SDS011;392;48.838;2.322;2023-03-24T02:45:02;2.90;;;2.70;;
819;SDS011;392;48.838;2.322;2023-03-24T02:47:42;3.27;;;2.67;;
819;SDS011;392;48.838;2.322;2023-03-24T02:50:23;2.67;;;2.53;;
819;SDS011;392;48.838;2.322;2023-03-24T02:52:59;2.87;;;2.67;;
819;SDS011;392;48.838;2.322;2023-03-24T02:55:41;3.00;;;2.70;;
819;SDS011;392;48.838;2.322;2023-03-24T02:58:14;2.93;;;2.70;;
819;SDS011;392;48.838;2.322;2023-03-24T03:00:51;2.80;;;2.60;;
819;SDS011;392;48.838;2.322;2023-03-24T03:03:51;3.53;;;2.70;;
819;SDS011;392;48.838;2.322;2023-03-24T03:06:24;2.90;;;2.50;;
819;SDS011;392;48.838;2.322;2023-03-24T03:08:56;2.37;;;2.27;;
819;SDS011;392;48.838;2.322;2023-03-24T03:11:30;1.93;;;1.83;;
819;SDS011;392;48.838;2.322;2023-03-24T03:13:59;2.10;;;2.00;;
819;SDS011;392;48.838;2.322;2023-03-24T03:16:30;2.10;;;2.00;;
819;SDS011;392;48.838;2.322;2023-03-24T03:19:04;2.30;;;1.90;;
819;SDS011;392;48.838;2.322;2023-03-24T03:21:38;1.67;;;1.63;;
819;SDS011;392;48.838;2.322;2023-03-24T03:24:09;2.37;;;2.17;;
819;SDS011;392;48.838;2.322;2023-03-24T03:26:42;1.63;;;1.50;;
819;SDS011;392;48.838;2.322;2023-03-24T03:29:13;1.93;;;1.43;;
819;SDS011;392;48.838;2.322;2023-03-24T03:31:48;2.00;;;1.50;;
819;SDS011;392;48.838;2.322;2023-03-24T03:34:26;1.50;;;1.40;;
819;SDS011;392;48.838;2.322;2023-03-24T03:37:00;1.80;;;1.30;;
819;SDS011;392;48.838;2.322;2023-03-24T03:39:33;1.97;;;1.80;;
819;SDS011;392;48.838;2.322;2023-03-24T03:42:10;2.10;;;2.00;;
819;SDS011;392;48.838;2.322;2023-03-24T03:44:38;1.90;;;1.60;;
819;SDS011;392;48.838;2.322;2023-03-24T03:47:05;3.93;;;1.83;;
819;SDS011;392;48.838;2.322;2023-03-24T03:49:42;4.47;;;1.60;;
819;SDS011;392;48.838;2.322;2023-03-24T03:52:10;1.80;;;1.53;;
819;SDS011;392;48.838;2.322;2023-03-24T03:54:38;2.80;;;1.37;;
819;SDS011;392;48.838;2.322;2023-03-24T03:57:07;1.93;;;1.20;;
819;SDS011;392;48.838;2.322;2023-03-24T03:59:47;2.20;;;1.57;;
819;SDS011;392;48.838;2.322;2023-03-24T04:02:21;5.20;;;1.67;;
819;SDS011;392;48.838;2.322;2023-03-24T04:08:06;1.83;;;1.60;;
819;SDS011;392;48.838;2.322;2023-03-24T04:11:15;1.43;;;1.33;;
819;SDS011;392;48.838;2.322;2023-03-24T04:14:43;3.63;;;2.03;;
819;SDS011;392;48.838;2.322;2023-03-24T04:18:11;1.93;;;1.30;;
819;SDS011;392;48.838;2.322;2023-03-24T04:21:25;1.20;;;1.10;;
819;SDS011;392;48.838;2.322;2023-03-24T04:24:27;1.73;;;1.63;;
819;SDS011;392;48.838;2.322;2023-03-24T04:27:08;3.03;;;1.30;;
819;SDS011;392;48.838;2.322;2023-03-24T04:29:45;1.10;;;1.00;;
819;SDS011;392;48.838;2.322;2023-03-24T04:32:24;3.00;;;1.30;;
819;SDS011;392;48.838;2.322;2023-03-24T04:34:58;2.70;;;1.20;;
819;SDS011;392;48.838;2.322;2023-03-24T04:37:49;2.73;;;1.53;;
819;SDS011;392;48.838;2.322;2023-03-24T04:40:23;3.23;;;1.30;;
819;SDS011;392;48.838;2.322;2023-03-24T04:42:51;1.73;;;1.23;;
819;SDS011;392;48.838;2.322;2023-03-24T04:45:26;2.63;;;1.23;;
819;SDS011;392;48.838;2.322;2023-03-24T04:48:17;2.77;;;1.70;;
819;SDS011;392;48.838;2.322;2023-03-24T04:51:12;1.33;;;1.23;;
819;SDS011;392;48.838;2.322;2023-03-24T04:53:59;1.20;;;1.07;;
819;SDS011;392;48.838;2.322;2023-03-24T04:56:29;2.70;;;1.73;;
819;SDS011;392;48.838;2.322;2023-03-24T04:59:36;2.60;;;2.40;;
819;SDS011;392;48.838;2.322;2023-03-24T05:02:07;3.93;;;1.80;;
819;SDS011;392;48.838;2.322;2023-03-24T05:04:41;5.97;;;1.40;;
819;SDS011;392;48.838;2.322;2023-03-24T05:07:29;2.23;;;1.60;;
819;SDS011;392;48.838;2.322;2023-03-24T05:09:59;7.33;;;1.87;;
819;SDS011;392;48.838;2.322;2023-03-24T05:12:27;4.00;;;1.97;;
819;SDS011;392;48.838;2.322;2023-03-24T05:15:15;3.90;;;1.57;;
819;SDS011;392;48.838;2.322;2023-03-24T05:17:46;3.07;;;1.60;;
819;SDS011;392;48.838;2.322;2023-03-24T05:20:14;2.23;;;1.60;;
819;SDS011;392;48.838;2.322;2023-03-24T05:22:45;1.40;;;1.30;;
819;SDS011;392;48.838;2.322;2023-03-24T05:25:14;4.80;;;1.87;;
819;SDS011;392;48.838;2.322;2023-03-24T05:27:42;2.50;;;1.40;;
819;SDS011;392;48.838;2.322;2023-03-24T05:30:20;4.60;;;1.60;;
819;SDS011;392;48.838;2.322;2023-03-24T05:32:52;3.03;;;1.80;;
819;SDS011;392;48.838;2.322;2023-03-24T05:35:20;2.27;;;1.47;;
819;SDS011;392;48.838;2.322;2023-03-24T05:37:47;3.57;;;1.33;;
819;SDS011;392;48.838;2.322;2023-03-24T05:40:15;4.47;;;1.60;;
819;SDS011;392;48.838;2.322;2023-03-24T05:42:50;2.03;;;1.83;;
819;SDS011;392;48.838;2.322;2023-03-24T05:45:18;1.93;;;1.50;;
819;SDS011;392;48.838;2.322;2023-03-24T05:47:46;2.03;;;1.57;;
819;SDS011;392;48.838;2.322;2023-03-24T05:50:19;1.90;;;1.70;;
819;SDS011;392;48.838;2.322;2023-03-24T05:52:46;2.57;;;1.70;;
819;SDS011;392;48.838;2.322;2023-03-24T05:55:33;2.20;;;1.50;;
819;SDS011;392;48.838;2.322;2023-03-24T05:58:12;2.97;;;1.50;;
819;SDS011;392;48.838;2.322;2023-03-24T06:00:47;4.57;;;2.10;;
819;SDS011;392;48.838;2.322;2023-03-24T06:03:25;2.47;;;1.73;;
819;SDS011;392;48.838;2.322;2023-03-24T06:06:05;7.53;;;2.10;;
819;SDS011;392;48.838;2.322;2023-03-24T06:08:39;4.40;;;1.80;;
819;SDS011;392;48.838;2.322;2023-03-24T06:11:09;4.17;;;2.07;;
819;SDS011;392;48.838;2.322;2023-03-24T06:13:46;9.27;;;2.60;;
819;SDS011;392;48.838;2.322;2023-03-24T06:16:14;5.03;;;1.97;;
819;SDS011;392;48.838;2.322;2023-03-24T06:18:55;4.20;;;1.97;;
819;SDS011;392;48.838;2.322;2023-03-24T06:21:43;3.23;;;2.27;;
819;SDS011;392;48.838;2.322;2023-03-24T06:24:15;3.10;;;1.67;;
819;SDS011;392;48.838;2.322;2023-03-24T06:26:42;3.23;;;1.77;;
819;SDS011;392;48.838;2.322;2023-03-24T06:29:11;3.30;;;1.60;;
819;SDS011;392;48.838;2.322;2023-03-24T06:31:42;5.73;;;1.70;;
819;SDS011;392;48.838;2.322;2023-03-24T06:34:10;3.40;;;1.57;;
819;SDS011;392;48.838;2.322;2023-03-24T06:36:38;5.23;;;2.07;;
819;SDS011;392;48.838;2.322;2023-03-24T06:39:07;3.33;;;2.57;;
819;SDS011;392;48.838;2.322;2023-03-24T06:41:35;7.30;;;2.03;;
819;SDS011;392;48.838;2.322;2023-03-24T06:44:03;2.53;;;1.37;;
819;SDS011;392;48.838;2.322;2023-03-24T06:46:31;4.27;;;2.07;;
819;SDS011;392;48.838;2.322;2023-03-24T06:48:59;4.30;;;2.30;;
819;SDS011;392;48.838;2.322;2023-03-24T06:51:26;2.40;;;2.03;;
819;SDS011;392;48.838;2.322;2023-03-24T06:53:54;3.03;;;1.90;;
819;SDS011;392;48.838;2.322;2023-03-24T06:56:23;5.03;;;2.20;;
819;SDS011;392;48.838;2.322;2023-03-24T06:58:55;3.87;;;2.07;;
819;SDS011;392;48.838;2.322;2023-03-24T07:01:31;3.63;;;2.00;;
819;SDS011;392;48.838;2.322;2023-03-24T07:04:20;2.57;;;2.03;;
819;SDS011;392;48.838;2.322;2023-03-24T07:06:54;3.40;;;2.40;;
819;SDS011;392;48.838;2.322;2023-03-24T07:09:24;5.30;;;2.57;;
819;SDS011;392;48.838;2.322;2023-03-24T07:11:53;4.50;;;2.00;;
819;SDS011;392;48.838;2.322;2023-03-24T07:14:20;4.03;;;1.73;;
819;SDS011;392;48.838;2.322;2023-03-24T07:16:51;4.80;;;2.10;;
819;SDS011;392;48.838;2.322;2023-03-24T07:19:37;3.40;;;2.13;;
819;SDS011;392;48.838;2.322;2023-03-24T07:22:30;3.57;;;2.03;;
819;SDS011;392;48.838;2.322;2023-03-24T07:25:31;4.23;;;2.40;;
819;SDS011;392;48.838;2.322;2023-03-24T07:28:32;7.57;;;2.10;;
819;SDS011;392;48.838;2.322;2023-03-24T07:31:00;9.43;;;3.20;;
819;SDS011;392;48.838;2.322;2023-03-24T07:33:28;6.80;;;2.40;;
819;SDS011;392;48.838;2.322;2023-03-24T07:35:57;5.33;;;2.40;;
819;SDS011;392;48.838;2.322;2023-03-24T07:38:25;3.83;;;1.60;;
819;SDS011;392;48.838;2.322;2023-03-24T07:40:57;3.40;;;1.70;;
819;SDS011;392;48.838;2.322;2023-03-24T07:43:25;5.30;;;2.70;;
819;SDS011;392;48.838;2.322;2023-03-24T07:46:17;7.20;;;2.70;;
819;SDS011;392;48.838;2.322;2023-03-24T07:48:44;5.00;;;1.90;;
819;SDS011;392;48.838;2.322;2023-03-24T07:51:14;5.30;;;1.90;;
819;SDS011;392;48.838;2.322;2023-03-24T07:54:01;3.77;;;2.70;;
819;SDS011;392;48.838;2.322;2023-03-24T07:56:34;5.07;;;2.60;;
819;SDS011;392;48.838;2.322;2023-03-24T07:59:01;4.80;;;2.20;;
819;SDS011;392;48.838;2.322;2023-03-24T08:01:33;5.10;;;2.20;;
819;SDS011;392;48.838;2.322;2023-03-24T08:04:04;2.60;;;1.80;;
819;SDS011;392;48.838;2.322;2023-03-24T08:06:51;7.00;;;2.23;;
819;SDS011;392;48.838;2.322;2023-03-24T08:09:19;5.53;;;1.90;;
819;SDS011;392;48.838;2.322;2023-03-24T08:11:48;4.40;;;2.17;;
819;SDS011;392;48.838;2.322;2023-03-24T08:14:15;5.03;;;2.17;;
819;SDS011;392;48.838;2.322;2023-03-24T08:16:44;1.90;;;1.63;;
819;SDS011;392;48.838;2.322;2023-03-24T08:19:11;4.53;;;2.37;;
819;SDS011;392;48.838;2.322;2023-03-24T08:21:38;5.57;;;2.17;;
819;SDS011;392;48.838;2.322;2023-03-24T08:24:06;2.33;;;1.80;;
819;SDS011;392;48.838;2.322;2023-03-24T08:26:33;2.63;;;1.70;;
819;SDS011;392;48.838;2.322;2023-03-24T08:29:01;4.13;;;2.20;;
819;SDS011;392;48.838;2.322;2023-03-24T08:31:30;2.40;;;2.17;;
819;SDS011;392;48.838;2.322;2023-03-24T08:33:59;3.93;;;2.27;;
819;SDS011;392;48.838;2.322;2023-03-24T08:36:29;5.37;;;1.90;;
819;SDS011;392;48.838;2.322;2023-03-24T08:38:56;5.20;;;2.57;;
819;SDS011;392;48.838;2.322;2023-03-24T08:41:25;6.00;;;1.87;;
819;SDS011;392;48.838;2.322;2023-03-24T08:43:59;4.00;;;1.70;;
819;SDS011;392;48.838;2.322;2023-03-24T08:46:28;5.63;;;1.93;;
819;SDS011;392;48.838;2.322;2023-03-24T08:48:55;5.63;;;2.20;;
819;SDS011;392;48.838;2.322;2023-03-24T08:51:24;7.83;;;2.40;;
819;SDS011;392;48.838;2.322;2023-03-24T08:53:52;3.90;;;2.47;;
819;SDS011;392;48.838;2.322;2023-03-24T08:56:20;4.90;;;2.00;;
819;SDS011;392;48.838;2.322;2023-03-24T08:58:48;4.40;;;2.30;;
819;SDS011;392;48.838;2.322;2023-03-24T09:01:18;5.80;;;2.53;;
819;SDS011;392;48.838;2.322;2023-03-24T09:03:45;1.93;;;1.77;;
819;SDS011;392;48.838;2.322;2023-03-24T09:06:13;5.33;;;2.37;;
819;SDS011;392;48.838;2.322;2023-03-24T09:08:42;5.53;;;2.33;;
819;SDS011;392;48.838;2.322;2023-03-24T09:11:12;4.30;;;2.17;;
819;SDS011;392;48.838;2.322;2023-03-24T09:13:42;4.47;;;1.60;;
819;SDS011;392;48.838;2.322;2023-03-24T09:16:10;4.77;;;2.00;;
819;SDS011;392;48.838;2.322;2023-03-24T09:18:37;5.67;;;2.50;;
819;SDS011;392;48.838;2.322;2023-03-24T09:21:05;4.67;;;2.50;;
819;SDS011;392;48.838;2.322;2023-03-24T09:23:33;5.30;;;2.20;;
819;SDS011;392;48.838;2.322;2023-03-24T09:26:02;4.30;;;1.93;;
819;SDS011;392;48.838;2.322;2023-03-24T09:28:31;5.97;;;2.43;;
819;SDS011;392;48.838;2.322;2023-03-24T09:30:59;3.13;;;2.50;;
819;SDS011;392;48.838;2.322;2023-03-24T09:33:28;4.87;;;2.30;;
819;SDS011;392;48.838;2.322;2023-03-24T09:35:56;2.60;;;1.57;;
819;SDS011;392;48.838;2.322;2023-03-24T09:38:26;5.37;;;1.90;;
819;SDS011;392;48.838;2.322;2023-03-24T09:40:54;3.67;;;2.30;;
819;SDS011;392;48.838;2.322;2023-03-24T09:43:29;4.03;;;1.63;;
819;SDS011;392;48.838;2.322;2023-03-24T09:46:03;4.40;;;2.07;;
819;SDS011;392;48.838;2.322;2023-03-24T09:48:39;3.77;;;2.00;;
819;SDS011;392;48.838;2.322;2023-03-24T09:51:12;5.77;;;1.80;;
819;SDS011;392;48.838;2.322;2023-03-24T09:53:48;4.33;;;2.37;;
819;SDS011;392;48.838;2.322;2023-03-24T09:56:26;3.43;;;2.30;;
819;SDS011;392;48.838;2.322;2023-03-24T09:58:59;7.27;;;2.63;;
819;SDS011;392;48.838;2.322;2023-03-24T10:01:30;3.70;;;1.60;;
819;SDS011;392;48.838;2.322;2023-03-24T10:03:59;5.60;;;2.03;;
819;SDS011;392;48.838;2.322;2023-03-24T10:06:28;5.03;;;2.47;;
819;SDS011;392;48.838;2.322;2023-03-24T10:09:03;3.10;;;2.10;;
819;SDS011;392;48.838;2.322;2023-03-24T10:11:44;3.70;;;2.20;;
819;SDS011;392;48.838;2.322;2023-03-24T10:14:20;2.80;;;1.90;;
819;SDS011;392;48.838;2.322;2023-03-24T10:17:11;4.00;;;1.70;;
819;SDS011;392;48.838;2.322;2023-03-24T10:19:49;3.90;;;1.70;;
819;SDS011;392;48.838;2.322;2023-03-24T10:22:23;4.17;;;2.13;;
819;SDS011;392;48.838;2.322;2023-03-24T10:24:57;2.60;;;1.73;;
819;SDS011;392;48.838;2.322;2023-03-24T10:27:33;6.70;;;2.40;;
819;SDS011;392;48.838;2.322;2023-03-24T10:30:10;3.83;;;2.57;;
819;SDS011;392;48.838;2.322;2023-03-24T10:32:43;3.67;;;2.17;;
819;SDS011;392;48.838;2.322;2023-03-24T10:35:14;5.23;;;2.17;;
819;SDS011;392;48.838;2.322;2023-03-24T10:37:45;6.40;;;2.30;;
819;SDS011;392;48.838;2.322;2023-03-24T10:40:13;3.27;;;1.63;;
819;SDS011;392;48.838;2.322;2023-03-24T10:42:44;6.57;;;2.40;;
819;SDS011;392;48.838;2.322;2023-03-24T10:45:17;2.87;;;1.90;;
819;SDS011;392;48.838;2.322;2023-03-24T10:47:52;3.90;;;1.90;;
819;SDS011;392;48.838;2.322;2023-03-24T10:50:24;4.43;;;2.13;;
819;SDS011;392;48.838;2.322;2023-03-24T10:52:55;3.27;;;2.33;;
819;SDS011;392;48.838;2.322;2023-03-24T10:55:29;3.43;;;2.30;;
819;SDS011;392;48.838;2.322;2023-03-24T10:58:03;4.50;;;1.93;;
819;SDS011;392;48.838;2.322;2023-03-24T11:00:44;2.30;;;1.87;;
819;SDS011;392;48.838;2.322;2023-03-24T11:03:25;3.60;;;2.57;;
819;SDS011;392;48.838;2.322;2023-03-24T11:05:58;3.90;;;2.63;;
819;SDS011;392;48.838;2.322;2023-03-24T11:08:31;3.90;;;2.13;;
819;SDS011;392;48.838;2.322;2023-03-24T11:11:03;4.77;;;2.40;;
819;SDS011;392;48.838;2.322;2023-03-24T11:13:40;3.10;;;2.37;;
819;SDS011;392;48.838;2.322;2023-03-24T11:16:19;2.77;;;2.50;;
819;SDS011;392;48.838;2.322;2023-03-24T11:18:57;3.73;;;1.83;;
819;SDS011;392;48.838;2.322;2023-03-24T11:21:26;4.87;;;2.10;;
819;SDS011;392;48.838;2.322;2023-03-24T11:23:56;3.87;;;2.47;;
819;SDS011;392;48.838;2.322;2023-03-24T11:26:27;3.70;;;1.97;;
819;SDS011;392;48.838;2.322;2023-03-24T11:28:59;5.27;;;2.37;;
819;SDS011;392;48.838;2.322;2023-03-24T11:31:31;4.50;;;1.90;;
819;SDS011;392;48.838;2.322;2023-03-24T11:34:05;3.83;;;2.10;;
819;SDS011;392;48.838;2.322;2023-03-24T11:36:40;3.00;;;2.20;;
819;SDS011;392;48.838;2.322;2023-03-24T11:39:10;6.53;;;4.37;;
819;SDS011;392;48.838;2.322;2023-03-24T11:41:42;4.67;;;2.80;;
819;SDS011;392;48.838;2.322;2023-03-24T11:44:18;4.80;;;3.27;;
819;SDS011;392;48.838;2.322;2023-03-24T11:46:49;3.50;;;2.13;;
819;SDS011;392;48.838;2.322;2023-03-24T11:49:21;4.00;;;2.30;;
819;SDS011;392;48.838;2.322;2023-03-24T11:51:53;4.97;;;2.10;;
819;SDS011;392;48.838;2.322;2023-03-24T11:54:23;5.80;;;3.37;;
819;SDS011;392;48.838;2.322;2023-03-24T11:56:55;3.80;;;2.40;;
819;SDS011;392;48.838;2.322;2023-03-24T11:59:31;2.73;;;2.13;;
819;SDS011;392;48.838;2.322;2023-03-24T12:02:09;5.53;;;3.00;;
819;SDS011;392;48.838;2.322;2023-03-24T12:07:57;2.77;;;1.80;;
819;SDS011;392;48.838;2.322;2023-03-24T12:10:36;2.30;;;1.40;;
819;SDS011;392;48.838;2.322;2023-03-24T12:13:11;2.73;;;1.57;;
819;SDS011;392;48.838;2.322;2023-03-24T12:15:48;2.90;;;1.30;;
819;SDS011;392;48.838;2.322;2023-03-24T12:18:31;2.00;;;0.83;;
819;SDS011;392;48.838;2.322;2023-03-24T12:21:13;2.00;;;1.40;;
819;SDS011;392;48.838;2.322;2023-03-24T12:23:53;1.13;;;0.80;;
819;SDS011;392;48.838;2.322;2023-03-24T12:26:24;0.80;;;0.80;;
819;SDS011;392;48.838;2.322;2023-03-24T12:28:57;0.60;;;0.60;;
819;SDS011;392;48.838;2.322;2023-03-24T12:31:52;2.53;;;1.00;;
819;SDS011;392;48.838;2.322;2023-03-24T12:37:29;0.93;;;0.90;;
819;SDS011;392;48.838;2.322;2023-03-24T12:43:30;2.40;;;1.20;;
819;SDS011;392;48.838;2.322;2023-03-24T12:46:14;1.83;;;1.77;;
819;SDS011;392;48.838;2.322;2023-03-24T12:49:01;1.80;;;1.70;;
819;SDS011;392;48.838;2.322;2023-03-24T12:51:46;2.33;;;2.10;;
819;SDS011;392;48.838;2.322;2023-03-24T12:54:26;2.40;;;2.20;;
819;SDS011;392;48.838;2.322;2023-03-24T12:57:05;2.63;;;2.43;;
819;SDS011;392;48.838;2.322;2023-03-24T12:59:38;2.63;;;2.43;;
819;SDS011;392;48.838;2.322;2023-03-24T13:02:11;4.60;;;2.90;;
819;SDS011;392;48.838;2.322;2023-03-24T13:04:47;5.87;;;2.30;;
819;SDS011;392;48.838;2.322;2023-03-24T13:07:20;4.53;;;2.10;;
819;SDS011;392;48.838;2.322;2023-03-24T13:09:55;6.37;;;3.30;;
819;SDS011;392;48.838;2.322;2023-03-24T13:12:30;3.13;;;1.93;;
819;SDS011;392;48.838;2.322;2023-03-24T13:15:03;3.03;;;1.87;;
819;SDS011;392;48.838;2.322;2023-03-24T13:17:43;4.50;;;2.40;;
819;SDS011;392;48.838;2.322;2023-03-24T13:20:16;5.23;;;1.93;;
819;SDS011;392;48.838;2.322;2023-03-24T13:22:50;2.50;;;2.00;;
819;SDS011;392;48.838;2.322;2023-03-24T13:25:21;2.30;;;1.60;;
819;SDS011;392;48.838;2.322;2023-03-24T13:27:56;2.60;;;2.07;;
819;SDS011;392;48.838;2.322;2023-03-24T13:30:31;1.70;;;1.23;;
819;SDS011;392;48.838;2.322;2023-03-24T13:33:02;2.60;;;1.37;;
819;SDS011;392;48.838;2.322;2023-03-24T13:35:39;1.70;;;1.57;;
819;SDS011;392;48.838;2.322;2023-03-24T13:38:24;2.03;;;1.60;;
819;SDS011;392;48.838;2.322;2023-03-24T13:41:01;2.10;;;1.87;;
819;SDS011;392;48.838;2.322;2023-03-24T13:43:31;3.70;;;1.70;;
819;SDS011;392;48.838;2.322;2023-03-24T13:46:00;4.50;;;2.20;;
819;SDS011;392;48.838;2.322;2023-03-24T13:48:32;3.17;;;1.57;;
819;SDS011;392;48.838;2.322;2023-03-24T13:51:04;2.97;;;1.40;;
819;SDS011;392;48.838;2.322;2023-03-24T13:53:43;3.10;;;2.17;;
819;SDS011;392;48.838;2.322;2023-03-24T13:56:22;2.60;;;1.80;;
819;SDS011;392;48.838;2.322;2023-03-24T13:59:19;3.00;;;1.70;;
819;SDS011;392;48.838;2.322;2023-03-24T14:05:00;2.80;;;1.77;;
819;SDS011;392;48.838;2.322;2023-03-24T14:07:44;3.10;;;1.70;;
819;SDS011;392;48.838;2.322;2023-03-24T14:13:20;3.77;;;2.30;;
819;SDS011;392;48.838;2.322;2023-03-24T14:19:18;1.37;;;1.00;;
819;SDS011;392;48.838;2.322;2023-03-24T14:24:38;1.63;;;0.90;;
819;SDS011;392;48.838;2.322;2023-03-24T14:30:00;4.50;;;1.43;;
819;SDS011;392;48.838;2.322;2023-03-24T14:32:37;2.70;;;1.60;;
819;SDS011;392;48.838;2.322;2023-03-24T14:35:25;1.70;;;1.60;;
819;SDS011;392;48.838;2.322;2023-03-24T14:38:00;3.70;;;1.80;;
819;SDS011;392;48.838;2.322;2023-03-24T14:40:32;6.70;;;1.50;;
819;SDS011;392;48.838;2.322;2023-03-24T14:43:14;3.07;;;1.60;;
819;SDS011;392;48.838;2.322;2023-03-24T14:45:52;2.67;;;1.43;;
819;SDS011;392;48.838;2.322;2023-03-24T14:51:25;4.83;;;1.07;;
819;SDS011;392;48.838;2.322;2023-03-24T14:54:02;3.63;;;1.53;;
819;SDS011;392;48.838;2.322;2023-03-24T14:56:34;1.93;;;1.20;;
819;SDS011;392;48.838;2.322;2023-03-24T14:59:07;2.23;;;1.20;;
819;SDS011;392;48.838;2.322;2023-03-24T15:01:44;2.50;;;1.50;;
819;SDS011;392;48.838;2.322;2023-03-24T15:04:15;1.90;;;1.40;;
819;SDS011;392;48.838;2.322;2023-03-24T15:06:43;1.80;;;1.40;;
819;SDS011;392;48.838;2.322;2023-03-24T15:09:13;2.53;;;1.37;;
819;SDS011;392;48.838;2.322;2023-03-24T15:11:41;2.20;;;1.43;;
819;SDS011;392;48.838;2.322;2023-03-24T15:14:21;3.67;;;1.27;;
819;SDS011;392;48.838;2.322;2023-03-24T15:16:53;4.23;;;1.50;;
819;SDS011;392;48.838;2.322;2023-03-24T15:19:24;3.67;;;2.23;;
819;SDS011;392;48.838;2.322;2023-03-24T15:21:57;2.50;;;1.03;;
819;SDS011;392;48.838;2.322;2023-03-24T15:24:32;5.10;;;1.60;;
819;SDS011;392;48.838;2.322;2023-03-24T15:29:54;2.87;;;1.37;;
819;SDS011;392;48.838;2.322;2023-03-24T15:32:25;2.43;;;1.20;;
819;SDS011;392;48.838;2.322;2023-03-24T15:34:57;1.40;;;1.10;;
819;SDS011;392;48.838;2.322;2023-03-24T15:37:30;2.00;;;1.30;;
819;SDS011;392;48.838;2.322;2023-03-24T15:40:01;1.50;;;0.90;;
819;SDS011;392;48.838;2.322;2023-03-24T15:42:30;1.77;;;0.93;;
819;SDS011;392;48.838;2.322;2023-03-24T15:45:05;1.37;;;1.00;;
819;SDS011;392;48.838;2.322;2023-03-24T15:47:49;2.30;;;1.10;;
819;SDS011;392;48.838;2.322;2023-03-24T15:50:28;2.17;;;1.10;;
819;SDS011;392;48.838;2.322;2023-03-24T15:52:59;2.60;;;0.87;;
819;SDS011;392;48.838;2.322;2023-03-24T15:55:30;2.40;;;1.30;;
819;SDS011;392;48.838;2.322;2023-03-24T15:58:00;0.93;;;0.80;;
819;SDS011;392;48.838;2.322;2023-03-24T16:00:46;2.47;;;1.43;;
819;SDS011;392;48.838;2.322;2023-03-24T16:03:16;1.43;;;1.10;;
819;SDS011;392;48.838;2.322;2023-03-24T16:05:50;1.33;;;1.23;;
819;SDS011;392;48.838;2.322;2023-03-24T16:08:24;2.50;;;1.30;;
819;SDS011;392;48.838;2.322;2023-03-24T16:11:01;1.40;;;1.30;;
819;SDS011;392;48.838;2.322;2023-03-24T16:13:32;1.97;;;1.10;;
819;SDS011;392;48.838;2.322;2023-03-24T16:16:04;1.40;;;1.30;;
819;SDS011;392;48.838;2.322;2023-03-24T16:18:44;2.97;;;1.30;;
819;SDS011;392;48.838;2.322;2023-03-24T16:21:13;2.80;;;1.50;;
819;SDS011;392;48.838;2.322;2023-03-24T16:23:44;1.70;;;1.20;;
819;SDS011;392;48.838;2.322;2023-03-24T16:26:12;1.07;;;0.97;;
819;SDS011;392;48.838;2.322;2023-03-24T16:28:40;1.70;;;1.10;;
819;SDS011;392;48.838;2.322;2023-03-24T16:31:10;1.10;;;1.00;;
819;SDS011;392;48.838;2.322;2023-03-24T16:33:47;3.40;;;1.53;;
819;SDS011;392;48.838;2.322;2023-03-24T16:36:15;2.33;;;1.20;;
819;SDS011;392;48.838;2.322;2023-03-24T16:38:43;2.50;;;1.30;;
819;SDS011;392;48.838;2.322;2023-03-24T16:41:11;1.53;;;1.43;;
819;SDS011;392;48.838;2.322;2023-03-24T16:43:39;2.77;;;1.27;;
819;SDS011;392;48.838;2.322;2023-03-24T16:46:10;2.50;;;1.30;;
819;SDS011;392;48.838;2.322;2023-03-24T16:48:40;3.10;;;1.10;;
819;SDS011;392;48.838;2.322;2023-03-24T16:51:10;2.70;;;1.50;;
819;SDS011;392;48.838;2.322;2023-03-24T16:53:40;1.70;;;1.20;;
819;SDS011;392;48.838;2.322;2023-03-24T16:56:08;2.20;;;1.40;;
819;SDS011;392;48.838;2.322;2023-03-24T16:58:38;1.97;;;1.37;;
819;SDS011;392;48.838;2.322;2023-03-24T17:01:09;2.70;;;1.67;;
819;SDS011;392;48.838;2.322;2023-03-24T17:03:51;2.77;;;1.57;;
819;SDS011;392;48.838;2.322;2023-03-24T17:06:21;3.53;;;1.50;;
819;SDS011;392;48.838;2.322;2023-03-24T17:08:49;3.23;;;1.30;;
819;SDS011;392;48.838;2.322;2023-03-24T17:11:19;2.90;;;1.20;;
819;SDS011;392;48.838;2.322;2023-03-24T17:13:51;6.13;;;1.37;;
819;SDS011;392;48.838;2.322;2023-03-24T17:16:21;1.50;;;1.33;;
819;SDS011;392;48.838;2.322;2023-03-24T17:18:49;2.07;;;1.93;;
819;SDS011;392;48.838;2.322;2023-03-24T17:21:17;3.30;;;1.60;;
819;SDS011;392;48.838;2.322;2023-03-24T17:23:47;6.13;;;2.30;;
819;SDS011;392;48.838;2.322;2023-03-24T17:26:19;1.70;;;1.60;;